sensor_id;sensor_type;location;lat;lon;timestamp;temperature;humidity
55369;DHT22;41247;49.736;8.752;2023-02-15T00:01:50;-2.00;99.90
55369;DHT22;41247;49.736;8.752;2023-02-15T00:05:32;-2.00;99.90
55369;DHT22;41247;49.736;8.752;2023-02-15T00:09:13;-2.00;99.90
55369;DHT22;41247;49.736;8.752;2023-02-15T00:12:54;-2.10;99.90
55369;DHT22;41247;49.736;8.752;2023-02-15T00:16:35;-2.20;99.90
55369;DHT22;41247;49.736;8.752;2023-02-15T00:20:16;-2.20;99.90
55369;DHT22;41247;49.736;8.752;2023-02-15T00:23:58;-2.30;99.90
55369;DHT22;41247;49.736;8.752;2023-02-15T00:27:40;-2.40;99.90
55369;DHT22;41247;49.736;8.752;2023-02-15T00:31:21;-2.40;99.90
55369;DHT22;41247;49.736;8.752;2023-02-15T00:35:02;-2.40;99.90
55369;DHT22;41247;49.736;8.752;2023-02-15T00:38:42;-2.40;99.90
55369;DHT22;41247;49.736;8.752;2023-02-15T00:42:23;-2.30;99.90
55369;DHT22;41247;49.736;8.752;2023-02-15T00:46:05;-2.30;99.90
55369;DHT22;41247;49.736;8.752;2023-02-15T00:49:45;-2.20;99.90
55369;DHT22;41247;49.736;8.752;2023-02-15T00:53:27;-2.10;99.90
55369;DHT22;41247;49.736;8.752;2023-02-15T00:57:08;-2.10;99.90
55369;DHT22;41247;49.736;8.752;2023-02-15T01:00:49;-2.10;99.90
55369;DHT22;41247;49.736;8.752;2023-02-15T01:04:30;-2.20;99.90
55369;DHT22;41247;49.736;8.752;2023-02-15T01:08:10;-2.20;99.90
55369;DHT22;41247;49.736;8.752;2023-02-15T01:11:51;-2.20;99.90
55369;DHT22;41247;49.736;8.752;2023-02-15T01:15:34;-2.20;99.90
55369;DHT22;41247;49.736;8.752;2023-02-15T01:19:15;-2.20;99.90
55369;DHT22;41247;49.736;8.752;2023-02-15T01:22:57;-2.30;99.90
55369;DHT22;41247;49.736;8.752;2023-02-15T01:26:38;-2.30;99.90
55369;DHT22;41247;49.736;8.752;2023-02-15T01:30:19;-2.40;99.90
55369;DHT22;41247;49.736;8.752;2023-02-15T01:33:59;-2.50;99.90
55369;DHT22;41247;49.736;8.752;2023-02-15T01:37:40;-2.50;99.90
55369;DHT22;41247;49.736;8.752;2023-02-15T01:41:21;-2.50;99.90
55369;DHT22;41247;49.736;8.752;2023-02-15T01:49:19;-2.40;99.90
55369;DHT22;41247;49.736;8.752;2023-02-15T01:53:19;-2.30;99.90
55369;DHT22;41247;49.736;8.752;2023-02-15T01:57:31;-2.30;99.90
55369;DHT22;41247;49.736;8.752;2023-02-15T02:01:11;-2.40;99.90
55369;DHT22;41247;49.736;8.752;2023-02-15T02:04:54;-2.40;99.90
55369;DHT22;41247;49.736;8.752;2023-02-15T02:08:38;-2.40;99.90
55369;DHT22;41247;49.736;8.752;2023-02-15T02:12:21;-2.40;99.90
55369;DHT22;41247;49.736;8.752;2023-02-15T02:16:28;-2.50;99.90
55369;DHT22;41247;49.736;8.752;2023-02-15T02:29:26;-2.40;99.90
55369;DHT22;41247;49.736;8.752;2023-02-15T02:37:16;-2.20;99.90
55369;DHT22;41247;49.736;8.752;2023-02-15T02:41:32;-2.20;99.90
55369;DHT22;41247;49.736;8.752;2023-02-15T02:45:28;-2.20;99.90
55369;DHT22;41247;49.736;8.752;2023-02-15T02:49:13;-2.10;99.90
55369;DHT22;41247;49.736;8.752;2023-02-15T02:52:55;-2.10;99.90
55369;DHT22;41247;49.736;8.752;2023-02-15T02:56:43;-2.10;99.90
55369;DHT22;41247;49.736;8.752;2023-02-15T03:00:29;-2.10;99.90
55369;DHT22;41247;49.736;8.752;2023-02-15T03:04:16;-2.10;99.90
55369;DHT22;41247;49.736;8.752;2023-02-15T03:07:58;-2.00;99.90
55369;DHT22;41247;49.736;8.752;2023-02-15T03:11:42;-1.90;99.90
55369;DHT22;41247;49.736;8.752;2023-02-15T03:15:25;-1.90;99.90
55369;DHT22;41247;49.736;8.752;2023-02-15T03:19:29;-2.00;99.90
55369;DHT22;41247;49.736;8.752;2023-02-15T03:23:20;-2.00;99.90
55369;DHT22;41247;49.736;8.752;2023-02-15T03:27:05;-2.00;99.90
55369;DHT22;41247;49.736;8.752;2023-02-15T03:30:53;-2.00;99.90
55369;DHT22;41247;49.736;8.752;2023-02-15T03:34:36;-2.10;99.90
55369;DHT22;41247;49.736;8.752;2023-02-15T03:38:21;-2.10;99.90
55369;DHT22;41247;49.736;8.752;2023-02-15T03:42:25;-2.20;99.90
55369;DHT22;41247;49.736;8.752;2023-02-15T03:46:34;-2.20;99.90
55369;DHT22;41247;49.736;8.752;2023-02-15T03:50:27;-2.30;99.90
55369;DHT22;41247;49.736;8.752;2023-02-15T03:54:28;-2.30;99.90
55369;DHT22;41247;49.736;8.752;2023-02-15T03:58:10;-2.20;99.90
55369;DHT22;41247;49.736;8.752;2023-02-15T04:05:58;-2.20;99.90
55369;DHT22;41247;49.736;8.752;2023-02-15T04:09:41;-2.20;99.90
55369;DHT22;41247;49.736;8.752;2023-02-15T04:13:24;-2.20;99.90
55369;DHT22;41247;49.736;8.752;2023-02-15T04:17:10;-2.20;99.90
55369;DHT22;41247;49.736;8.752;2023-02-15T04:20:50;-2.20;99.90
55369;DHT22;41247;49.736;8.752;2023-02-15T04:24:31;-2.20;99.90
55369;DHT22;41247;49.736;8.752;2023-02-15T04:28:12;-2.10;99.90
55369;DHT22;41247;49.736;8.752;2023-02-15T04:31:54;-2.10;99.90
55369;DHT22;41247;49.736;8.752;2023-02-15T04:35:35;-2.00;99.90
55369;DHT22;41247;49.736;8.752;2023-02-15T04:39:17;-2.00;99.90
55369;DHT22;41247;49.736;8.752;2023-02-15T04:42:58;-2.10;99.90
55369;DHT22;41247;49.736;8.752;2023-02-15T04:46:39;-2.10;99.90
55369;DHT22;41247;49.736;8.752;2023-02-15T04:50:21;-2.20;99.90
55369;DHT22;41247;49.736;8.752;2023-02-15T04:54:01;-2.20;99.90
55369;DHT22;41247;49.736;8.752;2023-02-15T04:57:42;-2.20;99.90
55369;DHT22;41247;49.736;8.752;2023-02-15T05:01:22;-2.20;99.90
55369;DHT22;41247;49.736;8.752;2023-02-15T05:05:03;-2.20;99.90
55369;DHT22;41247;49.736;8.752;2023-02-15T05:08:44;-2.20;99.90
55369;DHT22;41247;49.736;8.752;2023-02-15T05:12:24;-2.20;99.90
55369;DHT22;41247;49.736;8.752;2023-02-15T05:16:05;-2.10;99.90
55369;DHT22;41247;49.736;8.752;2023-02-15T05:19:46;-2.10;99.90
55369;DHT22;41247;49.736;8.752;2023-02-15T05:23:26;-2.10;99.90
55369;DHT22;41247;49.736;8.752;2023-02-15T05:27:12;-2.10;99.90
55369;DHT22;41247;49.736;8.752;2023-02-15T05:31:06;-2.00;99.90
55369;DHT22;41247;49.736;8.752;2023-02-15T05:34:54;-2.10;99.90
55369;DHT22;41247;49.736;8.752;2023-02-15T05:38:35;-2.10;99.90
55369;DHT22;41247;49.736;8.752;2023-02-15T05:42:18;-2.10;99.90
55369;DHT22;41247;49.736;8.752;2023-02-15T05:45:59;-2.10;99.90
55369;DHT22;41247;49.736;8.752;2023-02-15T05:49:40;-2.10;99.90
55369;DHT22;41247;49.736;8.752;2023-02-15T05:53:21;-2.10;99.90
55369;DHT22;41247;49.736;8.752;2023-02-15T05:57:01;-2.00;99.90
55369;DHT22;41247;49.736;8.752;2023-02-15T06:00:42;-2.00;99.90
55369;DHT22;41247;49.736;8.752;2023-02-15T06:04:22;-2.00;99.90
55369;DHT22;41247;49.736;8.752;2023-02-15T06:08:03;-2.00;99.90
55369;DHT22;41247;49.736;8.752;2023-02-15T06:11:44;-1.90;99.90
55369;DHT22;41247;49.736;8.752;2023-02-15T06:15:25;-1.90;99.90
55369;DHT22;41247;49.736;8.752;2023-02-15T06:19:06;-1.90;99.90
55369;DHT22;41247;49.736;8.752;2023-02-15T06:22:46;-1.80;99.90
55369;DHT22;41247;49.736;8.752;2023-02-15T06:26:27;-1.80;99.90
55369;DHT22;41247;49.736;8.752;2023-02-15T06:30:08;-1.80;99.90
55369;DHT22;41247;49.736;8.752;2023-02-15T06:33:51;-1.80;99.90
55369;DHT22;41247;49.736;8.752;2023-02-15T06:37:32;-1.80;99.90
55369;DHT22;41247;49.736;8.752;2023-02-15T06:41:12;-1.70;99.90
55369;DHT22;41247;49.736;8.752;2023-02-15T06:44:53;-1.70;99.90
55369;DHT22;41247;49.736;8.752;2023-02-15T06:48:33;-1.70;99.90
55369;DHT22;41247;49.736;8.752;2023-02-15T06:52:14;-1.80;99.90
55369;DHT22;41247;49.736;8.752;2023-02-15T06:56:06;-1.80;99.90
55369;DHT22;41247;49.736;8.752;2023-02-15T06:59:47;-1.80;99.90
55369;DHT22;41247;49.736;8.752;2023-02-15T07:03:28;-1.80;99.90
55369;DHT22;41247;49.736;8.752;2023-02-15T07:07:10;-1.90;99.90
55369;DHT22;41247;49.736;8.752;2023-02-15T07:10:52;-1.80;99.90
55369;DHT22;41247;49.736;8.752;2023-02-15T07:14:33;-1.80;99.90
55369;DHT22;41247;49.736;8.752;2023-02-15T07:18:14;-1.80;99.90
55369;DHT22;41247;49.736;8.752;2023-02-15T07:21:55;-1.70;99.90
55369;DHT22;41247;49.736;8.752;2023-02-15T07:25:35;-1.70;99.90
55369;DHT22;41247;49.736;8.752;2023-02-15T07:29:16;-1.60;99.90
55369;DHT22;41247;49.736;8.752;2023-02-15T07:32:57;-1.50;99.90
55369;DHT22;41247;49.736;8.752;2023-02-15T07:36:38;-1.40;99.90
55369;DHT22;41247;49.736;8.752;2023-02-15T07:40:19;-1.30;99.90
55369;DHT22;41247;49.736;8.752;2023-02-15T07:44:00;-1.20;99.90
55369;DHT22;41247;49.736;8.752;2023-02-15T07:47:40;-1.10;99.90
55369;DHT22;41247;49.736;8.752;2023-02-15T07:51:21;-1.10;99.90
55369;DHT22;41247;49.736;8.752;2023-02-15T07:55:02;-1.00;99.90
55369;DHT22;41247;49.736;8.752;2023-02-15T07:58:43;-0.90;99.90
55369;DHT22;41247;49.736;8.752;2023-02-15T08:02:23;-0.90;99.90
55369;DHT22;41247;49.736;8.752;2023-02-15T08:06:04;-0.90;99.90
55369;DHT22;41247;49.736;8.752;2023-02-15T08:09:45;-0.80;99.90
55369;DHT22;41247;49.736;8.752;2023-02-15T08:13:25;-0.80;99.90
55369;DHT22;41247;49.736;8.752;2023-02-15T08:17:06;-0.70;99.90
55369;DHT22;41247;49.736;8.752;2023-02-15T08:20:50;-0.70;99.90
55369;DHT22;41247;49.736;8.752;2023-02-15T08:24:35;-0.60;99.90
55369;DHT22;41247;49.736;8.752;2023-02-15T08:28:17;-0.60;99.90
55369;DHT22;41247;49.736;8.752;2023-02-15T08:32:00;-0.50;99.90
55369;DHT22;41247;49.736;8.752;2023-02-15T08:35:42;-0.40;99.90
55369;DHT22;41247;49.736;8.752;2023-02-15T08:39:23;-0.30;99.90
55369;DHT22;41247;49.736;8.752;2023-02-15T08:43:04;-0.20;99.90
55369;DHT22;41247;49.736;8.752;2023-02-15T08:46:45;-0.20;99.90
55369;DHT22;41247;49.736;8.752;2023-02-15T08:50:27;-0.20;99.90
55369;DHT22;41247;49.736;8.752;2023-02-15T08:54:11;-0.10;99.90
55369;DHT22;41247;49.736;8.752;2023-02-15T08:57:53;0.10;99.90
55369;DHT22;41247;49.736;8.752;2023-02-15T09:01:34;0.10;99.90
55369;DHT22;41247;49.736;8.752;2023-02-15T09:05:15;0.10;99.90
55369;DHT22;41247;49.736;8.752;2023-02-15T09:08:56;0.30;99.90
55369;DHT22;41247;49.736;8.752;2023-02-15T09:12:37;0.40;99.90
55369;DHT22;41247;49.736;8.752;2023-02-15T09:16:19;0.50;99.90
55369;DHT22;41247;49.736;8.752;2023-02-15T09:20:01;0.50;99.90
55369;DHT22;41247;49.736;8.752;2023-02-15T09:23:44;0.80;99.90
55369;DHT22;41247;49.736;8.752;2023-02-15T09:27:25;1.00;99.90
55369;DHT22;41247;49.736;8.752;2023-02-15T09:31:15;1.10;99.90
55369;DHT22;41247;49.736;8.752;2023-02-15T09:35:00;1.20;99.90
55369;DHT22;41247;49.736;8.752;2023-02-15T09:38:41;1.30;99.90
55369;DHT22;41247;49.736;8.752;2023-02-15T09:46:38;1.30;99.90
55369;DHT22;41247;49.736;8.752;2023-02-15T09:54:25;1.50;99.90
55369;DHT22;41247;49.736;8.752;2023-02-15T09:58:34;1.60;99.90
55369;DHT22;41247;49.736;8.752;2023-02-15T10:06:33;1.70;99.90
55369;DHT22;41247;49.736;8.752;2023-02-15T10:10:57;1.90;99.90
55369;DHT22;41247;49.736;8.752;2023-02-15T10:19:08;2.10;99.90
55369;DHT22;41247;49.736;8.752;2023-02-15T10:23:36;2.20;99.90
55369;DHT22;41247;49.736;8.752;2023-02-15T10:27:26;2.20;99.90
55369;DHT22;41247;49.736;8.752;2023-02-15T10:31:38;2.20;99.90
55369;DHT22;41247;49.736;8.752;2023-02-15T10:40:00;2.10;99.90
55369;DHT22;41247;49.736;8.752;2023-02-15T10:44:11;2.00;99.90
55369;DHT22;41247;49.736;8.752;2023-02-15T10:48:22;2.00;99.90
55369;DHT22;41247;49.736;8.752;2023-02-15T11:01:34;2.00;99.90
55369;DHT22;41247;49.736;8.752;2023-02-15T11:05:41;2.00;99.90
55369;DHT22;41247;49.736;8.752;2023-02-15T11:09:43;1.90;99.90
55369;DHT22;41247;49.736;8.752;2023-02-15T11:13:29;1.90;99.90
55369;DHT22;41247;49.736;8.752;2023-02-15T11:17:16;2.00;99.90
55369;DHT22;41247;49.736;8.752;2023-02-15T11:25:32;2.10;99.90
55369;DHT22;41247;49.736;8.752;2023-02-15T11:29:17;2.30;99.90
55369;DHT22;41247;49.736;8.752;2023-02-15T11:33:03;2.40;99.90
55369;DHT22;41247;49.736;8.752;2023-02-15T11:36:46;2.60;99.90
55369;DHT22;41247;49.736;8.752;2023-02-15T11:40:35;2.80;99.90
55369;DHT22;41247;49.736;8.752;2023-02-15T11:44:42;3.30;99.90
55369;DHT22;41247;49.736;8.752;2023-02-15T11:48:30;3.70;99.90
55369;DHT22;41247;49.736;8.752;2023-02-15T11:52:13;4.10;99.90
55369;DHT22;41247;49.736;8.752;2023-02-15T11:55:55;4.40;99.90
55369;DHT22;41247;49.736;8.752;2023-02-15T11:59:37;4.70;99.90
55369;DHT22;41247;49.736;8.752;2023-02-15T12:03:39;4.70;99.90
55369;DHT22;41247;49.736;8.752;2023-02-15T12:07:39;4.60;99.90
55369;DHT22;41247;49.736;8.752;2023-02-15T12:11:30;4.80;99.90
55369;DHT22;41247;49.736;8.752;2023-02-15T12:15:30;4.90;99.90
55369;DHT22;41247;49.736;8.752;2023-02-15T12:19:34;5.00;99.90
55369;DHT22;41247;49.736;8.752;2023-02-15T12:23:18;5.10;99.90
55369;DHT22;41247;49.736;8.752;2023-02-15T12:30:54;5.40;99.90
55369;DHT22;41247;49.736;8.752;2023-02-15T12:34:37;5.50;99.90
55369;DHT22;41247;49.736;8.752;2023-02-15T12:45:44;5.90;99.90
55369;DHT22;41247;49.736;8.752;2023-02-15T12:49:27;6.10;99.90
55369;DHT22;41247;49.736;8.752;2023-02-15T12:57:01;6.40;99.90
55369;DHT22;41247;49.736;8.752;2023-02-15T13:05:05;6.30;99.90
55369;DHT22;41247;49.736;8.752;2023-02-15T13:08:58;6.30;99.90
55369;DHT22;41247;49.736;8.752;2023-02-15T13:13:00;6.50;99.90
55369;DHT22;41247;49.736;8.752;2023-02-15T13:16:41;6.50;99.90
55369;DHT22;41247;49.736;8.752;2023-02-15T13:20:23;6.40;99.90
55369;DHT22;41247;49.736;8.752;2023-02-15T13:24:25;6.60;99.90
55369;DHT22;41247;49.736;8.752;2023-02-15T13:28:14;6.70;99.90
55369;DHT22;41247;49.736;8.752;2023-02-15T13:31:57;6.90;99.90
55369;DHT22;41247;49.736;8.752;2023-02-15T13:36:05;6.80;99.90
55369;DHT22;41247;49.736;8.752;2023-02-15T13:40:02;6.80;99.90
55369;DHT22;41247;49.736;8.752;2023-02-15T13:44:09;6.80;99.90
55369;DHT22;41247;49.736;8.752;2023-02-15T13:48:20;6.80;99.90
55369;DHT22;41247;49.736;8.752;2023-02-15T13:52:26;6.90;99.90
55369;DHT22;41247;49.736;8.752;2023-02-15T14:01:09;7.10;99.90
55369;DHT22;41247;49.736;8.752;2023-02-15T14:17:30;6.80;99.90
55369;DHT22;41247;49.736;8.752;2023-02-15T14:25:51;7.20;99.90
55369;DHT22;41247;49.736;8.752;2023-02-15T14:29:57;7.50;99.90
55369;DHT22;41247;49.736;8.752;2023-02-15T14:33:40;7.60;99.90
55369;DHT22;41247;49.736;8.752;2023-02-15T14:37:43;7.50;99.90
55369;DHT22;41247;49.736;8.752;2023-02-15T14:41:41;7.10;99.90
55369;DHT22;41247;49.736;8.752;2023-02-15T14:45:35;7.00;99.90
55369;DHT22;41247;49.736;8.752;2023-02-15T14:49:24;7.00;99.90
55369;DHT22;41247;49.736;8.752;2023-02-15T15:01:04;6.40;99.90
55369;DHT22;41247;49.736;8.752;2023-02-15T15:08:38;5.90;99.90
55369;DHT22;41247;49.736;8.752;2023-02-15T15:32:19;5.00;99.90
55369;DHT22;41247;49.736;8.752;2023-02-15T15:40:29;4.90;99.90
55369;DHT22;41247;49.736;8.752;2023-02-15T15:44:54;4.90;99.90
55369;DHT22;41247;49.736;8.752;2023-02-15T15:48:40;4.60;99.90
55369;DHT22;41247;49.736;8.752;2023-02-15T15:52:21;4.60;99.90
55369;DHT22;41247;49.736;8.752;2023-02-15T15:56:08;4.40;99.90
55369;DHT22;41247;49.736;8.752;2023-02-15T15:59:53;4.20;99.90
55369;DHT22;41247;49.736;8.752;2023-02-15T16:03:34;4.00;99.90
55369;DHT22;41247;49.736;8.752;2023-02-15T16:11:01;3.60;99.90
55369;DHT22;41247;49.736;8.752;2023-02-15T16:14:50;3.50;99.90
55369;DHT22;41247;49.736;8.752;2023-02-15T16:18:31;3.50;99.90
55369;DHT22;41247;49.736;8.752;2023-02-15T16:22:19;3.50;99.90
55369;DHT22;41247;49.736;8.752;2023-02-15T16:30:33;3.40;99.90
55369;DHT22;41247;49.736;8.752;2023-02-15T16:34:17;3.30;99.90
55369;DHT22;41247;49.736;8.752;2023-02-15T16:37:58;3.20;99.90
55369;DHT22;41247;49.736;8.752;2023-02-15T16:41:39;3.20;99.90
55369;DHT22;41247;49.736;8.752;2023-02-15T16:45:22;3.00;99.90
55369;DHT22;41247;49.736;8.752;2023-02-15T16:49:12;2.90;99.90
55369;DHT22;41247;49.736;8.752;2023-02-15T16:52:56;2.80;99.90
55369;DHT22;41247;49.736;8.752;2023-02-15T16:56:37;2.60;99.90
55369;DHT22;41247;49.736;8.752;2023-02-15T17:00:25;2.40;99.90
55369;DHT22;41247;49.736;8.752;2023-02-15T17:04:13;2.20;99.90
55369;DHT22;41247;49.736;8.752;2023-02-15T17:12:10;2.10;99.90
55369;DHT22;41247;49.736;8.752;2023-02-15T17:19:51;2.00;99.90
55369;DHT22;41247;49.736;8.752;2023-02-15T17:23:40;1.90;99.90
55369;DHT22;41247;49.736;8.752;2023-02-15T17:27:26;1.80;99.90
55369;DHT22;41247;49.736;8.752;2023-02-15T17:31:08;1.70;99.90
55369;DHT22;41247;49.736;8.752;2023-02-15T17:39:17;1.40;99.90
55369;DHT22;41247;49.736;8.752;2023-02-15T17:42:59;1.30;99.90
55369;DHT22;41247;49.736;8.752;2023-02-15T17:46:40;1.00;99.90
55369;DHT22;41247;49.736;8.752;2023-02-15T17:50:24;0.80;99.90
55369;DHT22;41247;49.736;8.752;2023-02-15T17:54:07;0.70;99.90
55369;DHT22;41247;49.736;8.752;2023-02-15T17:57:49;0.60;99.90
55369;DHT22;41247;49.736;8.752;2023-02-15T18:01:29;0.50;99.90
55369;DHT22;41247;49.736;8.752;2023-02-15T18:05:13;0.50;99.90
55369;DHT22;41247;49.736;8.752;2023-02-15T18:08:54;0.40;99.90
55369;DHT22;41247;49.736;8.752;2023-02-15T18:12:35;0.40;99.90
55369;DHT22;41247;49.736;8.752;2023-02-15T18:16:21;0.40;99.90
55369;DHT22;41247;49.736;8.752;2023-02-15T18:20:20;0.30;99.90
55369;DHT22;41247;49.736;8.752;2023-02-15T18:24:02;0.20;99.90
55369;DHT22;41247;49.736;8.752;2023-02-15T18:27:43;0.10;99.90
55369;DHT22;41247;49.736;8.752;2023-02-15T18:31:24;0.00;99.90
55369;DHT22;41247;49.736;8.752;2023-02-15T18:35:05;-0.10;99.90
55369;DHT22;41247;49.736;8.752;2023-02-15T18:38:45;-0.10;99.90
55369;DHT22;41247;49.736;8.752;2023-02-15T18:42:31;-0.10;99.90
55369;DHT22;41247;49.736;8.752;2023-02-15T18:46:12;-0.10;99.90
55369;DHT22;41247;49.736;8.752;2023-02-15T18:49:53;-0.10;99.90
55369;DHT22;41247;49.736;8.752;2023-02-15T18:53:34;-0.10;99.90
55369;DHT22;41247;49.736;8.752;2023-02-15T18:57:15;-0.20;99.90
55369;DHT22;41247;49.736;8.752;2023-02-15T19:00:55;-0.20;99.90
55369;DHT22;41247;49.736;8.752;2023-02-15T19:04:36;-0.20;99.90
55369;DHT22;41247;49.736;8.752;2023-02-15T19:08:19;-0.20;99.90
55369;DHT22;41247;49.736;8.752;2023-02-15T19:12:01;-0.30;99.90
55369;DHT22;41247;49.736;8.752;2023-02-15T19:15:42;-0.30;99.90
55369;DHT22;41247;49.736;8.752;2023-02-15T19:19:23;-0.30;99.90
55369;DHT22;41247;49.736;8.752;2023-02-15T19:23:07;-0.40;99.90
55369;DHT22;41247;49.736;8.752;2023-02-15T19:26:52;-0.40;99.90
55369;DHT22;41247;49.736;8.752;2023-02-15T19:30:32;-0.40;99.90
55369;DHT22;41247;49.736;8.752;2023-02-15T19:34:16;-0.40;99.90
55369;DHT22;41247;49.736;8.752;2023-02-15T19:38:00;-0.30;99.90
55369;DHT22;41247;49.736;8.752;2023-02-15T19:41:43;-0.30;99.90
55369;DHT22;41247;49.736;8.752;2023-02-15T19:45:26;-0.20;99.90
55369;DHT22;41247;49.736;8.752;2023-02-15T19:49:09;-0.20;99.90
55369;DHT22;41247;49.736;8.752;2023-02-15T19:52:50;-0.20;99.90
55369;DHT22;41247;49.736;8.752;2023-02-15T19:56:30;-0.20;99.90
55369;DHT22;41247;49.736;8.752;2023-02-15T20:00:23;-0.20;99.90
55369;DHT22;41247;49.736;8.752;2023-02-15T20:04:04;-0.30;99.90
55369;DHT22;41247;49.736;8.752;2023-02-15T20:07:47;-0.30;99.90
55369;DHT22;41247;49.736;8.752;2023-02-15T20:11:29;-0.30;99.90
55369;DHT22;41247;49.736;8.752;2023-02-15T20:15:31;-0.40;99.90
55369;DHT22;41247;49.736;8.752;2023-02-15T20:19:13;-0.40;99.90
55369;DHT22;41247;49.736;8.752;2023-02-15T20:22:54;-0.50;99.90
55369;DHT22;41247;49.736;8.752;2023-02-15T20:26:35;-0.50;99.90
55369;DHT22;41247;49.736;8.752;2023-02-15T20:30:22;-0.40;99.90
55369;DHT22;41247;49.736;8.752;2023-02-15T20:34:04;-0.40;99.90
55369;DHT22;41247;49.736;8.752;2023-02-15T20:37:46;-0.40;99.90
55369;DHT22;41247;49.736;8.752;2023-02-15T20:41:30;-0.40;99.90
55369;DHT22;41247;49.736;8.752;2023-02-15T20:45:21;-0.30;99.90
55369;DHT22;41247;49.736;8.752;2023-02-15T20:49:05;-0.30;99.90
55369;DHT22;41247;49.736;8.752;2023-02-15T20:52:47;-0.40;99.90
55369;DHT22;41247;49.736;8.752;2023-02-15T20:56:28;-0.40;99.90
55369;DHT22;41247;49.736;8.752;2023-02-15T21:00:21;-0.40;99.90
55369;DHT22;41247;49.736;8.752;2023-02-15T21:04:03;-0.50;99.90
55369;DHT22;41247;49.736;8.752;2023-02-15T21:07:44;-0.50;99.90
55369;DHT22;41247;49.736;8.752;2023-02-15T21:11:24;-0.60;99.90
55369;DHT22;41247;49.736;8.752;2023-02-15T21:19:12;-0.70;99.90
55369;DHT22;41247;49.736;8.752;2023-02-15T21:22:55;-0.70;99.90
55369;DHT22;41247;49.736;8.752;2023-02-15T21:26:40;-0.70;99.90
55369;DHT22;41247;49.736;8.752;2023-02-15T21:30:25;-0.80;99.90
55369;DHT22;41247;49.736;8.752;2023-02-15T21:34:05;-0.70;99.90
55369;DHT22;41247;49.736;8.752;2023-02-15T21:37:48;-0.80;99.90
55369;DHT22;41247;49.736;8.752;2023-02-15T21:41:30;-0.70;99.90
55369;DHT22;41247;49.736;8.752;2023-02-15T21:45:20;-0.70;99.90
55369;DHT22;41247;49.736;8.752;2023-02-15T21:49:02;-0.70;99.90
55369;DHT22;41247;49.736;8.752;2023-02-15T21:52:43;-0.60;99.90
55369;DHT22;41247;49.736;8.752;2023-02-15T21:56:23;-0.60;99.90
55369;DHT22;41247;49.736;8.752;2023-02-15T22:00:04;-0.50;99.90
55369;DHT22;41247;49.736;8.752;2023-02-15T22:03:45;-0.50;99.90
55369;DHT22;41247;49.736;8.752;2023-02-15T22:07:26;-0.50;99.90
55369;DHT22;41247;49.736;8.752;2023-02-15T22:11:18;-0.50;99.90
55369;DHT22;41247;49.736;8.752;2023-02-15T22:15:00;-0.50;99.90
55369;DHT22;41247;49.736;8.752;2023-02-15T22:18:41;-0.60;99.90
55369;DHT22;41247;49.736;8.752;2023-02-15T22:22:22;-0.60;99.90
55369;DHT22;41247;49.736;8.752;2023-02-15T22:26:10;-0.50;99.90
55369;DHT22;41247;49.736;8.752;2023-02-15T22:29:57;-0.50;99.90
55369;DHT22;41247;49.736;8.752;2023-02-15T22:33:38;-0.50;99.90
55369;DHT22;41247;49.736;8.752;2023-02-15T22:37:19;-0.50;99.90
55369;DHT22;41247;49.736;8.752;2023-02-15T22:41:01;-0.40;99.90
55369;DHT22;41247;49.736;8.752;2023-02-15T22:44:43;-0.40;99.90
55369;DHT22;41247;49.736;8.752;2023-02-15T22:48:23;-0.50;99.90
55369;DHT22;41247;49.736;8.752;2023-02-15T22:52:05;-0.50;99.90
55369;DHT22;41247;49.736;8.752;2023-02-15T22:55:48;-0.50;99.90
55369;DHT22;41247;49.736;8.752;2023-02-15T22:59:29;-0.50;99.90
55369;DHT22;41247;49.736;8.752;2023-02-15T23:03:21;-0.50;99.90
55369;DHT22;41247;49.736;8.752;2023-02-15T23:07:15;-0.40;99.90
55369;DHT22;41247;49.736;8.752;2023-02-15T23:10:57;-0.50;99.90
55369;DHT22;41247;49.736;8.752;2023-02-15T23:14:37;-0.50;99.90
55369;DHT22;41247;49.736;8.752;2023-02-15T23:18:39;-0.50;99.90
55369;DHT22;41247;49.736;8.752;2023-02-15T23:22:21;-0.50;99.90
55369;DHT22;41247;49.736;8.752;2023-02-15T23:26:02;-0.50;99.90
55369;DHT22;41247;49.736;8.752;2023-02-15T23:29:43;-0.50;99.90
55369;DHT22;41247;49.736;8.752;2023-02-15T23:33:30;-0.50;99.90
55369;DHT22;41247;49.736;8.752;2023-02-15T23:37:13;-0.50;99.90
55369;DHT22;41247;49.736;8.752;2023-02-15T23:41:01;-0.50;99.90
55369;DHT22;41247;49.736;8.752;2023-02-15T23:44:44;-0.40;99.90
55369;DHT22;41247;49.736;8.752;2023-02-15T23:48:35;-0.40;99.90
55369;DHT22;41247;49.736;8.752;2023-02-15T23:52:17;-0.40;99.90
55369;DHT22;41247;49.736;8.752;2023-02-15T23:55:58;-0.50;99.90
55369;DHT22;41247;49.736;8.752;2023-02-15T23:59:40;-0.50;99.90
